createdAt,value
2023-04-03T03:31:40.030Z,50.875736
2023-04-03T03:32:40.001Z,50.875843
2023-04-03T03:33:39.929Z,50.876034
2023-04-03T03:34:39.917Z,50.876228
2023-04-03T03:35:40.198Z,50.876022
2023-04-03T03:36:39.899Z,50.875813
2023-04-03T03:37:39.908Z,50.875732
2023-04-03T03:38:39.873Z,50.875732
2023-04-03T03:39:39.860Z,50.875732
2023-04-03T03:40:39.859Z,50.876156
2023-04-03T03:41:39.834Z,50.875332
2023-04-03T03:42:39.842Z,50.875175
2023-04-03T03:43:39.824Z,50.875164
2023-04-03T03:44:39.816Z,50.875191
2023-04-03T03:45:39.840Z,50.875191
2023-04-03T03:46:39.821Z,50.875282
2023-04-03T03:47:39.830Z,50.875446
2023-04-03T03:48:39.774Z,50.875271
2023-04-03T03:49:39.788Z,50.875214
2023-04-03T03:50:39.766Z,50.875164
2023-04-03T03:51:39.744Z,50.875336
2023-04-03T03:52:39.746Z,50.875401
2023-04-03T03:53:39.729Z,50.875137
2023-04-03T03:54:39.725Z,50.875587
2023-04-03T03:55:39.932Z,50.875359
2023-04-03T03:56:39.699Z,50.875366
2023-04-03T03:57:39.701Z,50.875301
2023-04-03T03:58:39.676Z,50.875256
2023-04-03T03:59:39.664Z,50.875237
2023-04-03T04:00:39.657Z,50.875137
2023-04-03T04:01:39.679Z,50.875179
2023-04-03T04:02:39.820Z,50.875103
2023-04-03T04:03:39.787Z,50.875385
2023-04-03T04:04:39.624Z,50.875458
2023-04-03T04:05:40.060Z,50.875320
2023-04-03T04:06:39.614Z,50.875366
2023-04-03T04:07:39.604Z,50.875214
2023-04-03T04:08:39.589Z,50.873619
2023-04-03T04:09:39.584Z,50.874683
2023-04-03T04:10:39.561Z,50.875031
2023-04-03T04:11:39.556Z,50.875290
2023-04-03T04:12:39.551Z,50.875584
2023-04-03T04:13:39.558Z,50.875687
2023-04-03T04:14:39.530Z,50.875622
2023-04-03T04:15:39.839Z,50.875675
2023-04-03T04:16:39.556Z,50.875546
2023-04-03T04:17:39.551Z,50.875412
2023-04-03T04:18:39.492Z,50.875122
2023-04-03T04:19:39.475Z,50.875370
2023-04-03T04:20:39.471Z,50.875435
2023-04-03T04:21:39.456Z,50.875446
2023-04-03T04:22:39.459Z,50.875401
2023-04-03T04:23:39.450Z,50.875561
2023-04-03T04:24:39.930Z,50.875397
2023-04-03T04:25:39.505Z,50.875328
2023-04-03T04:26:39.417Z,50.876045
2023-04-03T04:27:39.410Z,50.876938
2023-04-03T04:28:39.394Z,50.875290
2023-04-03T04:29:39.391Z,50.875198
2023-04-03T04:30:39.415Z,50.875595
2023-04-03T04:31:39.372Z,50.875507
2023-04-03T04:32:39.410Z,50.875568
2023-04-03T04:33:39.348Z,50.875450
2023-04-03T04:34:39.355Z,50.875179
2023-04-03T04:35:39.744Z,50.875179
2023-04-03T04:36:39.487Z,50.875179
2023-04-03T04:37:39.320Z,50.875179
2023-04-03T04:38:39.294Z,50.875179
2023-04-03T04:39:39.288Z,50.875549
2023-04-03T04:40:39.275Z,50.875595
2023-04-03T04:41:39.265Z,50.875561
2023-04-03T04:42:39.271Z,50.875629
2023-04-03T04:43:39.257Z,50.875473
2023-04-03T04:44:39.245Z,50.875469
2023-04-03T04:45:39.579Z,50.875187
2023-04-03T04:46:40.231Z,50.875141
2023-04-03T04:47:39.273Z,50.875141
2023-04-03T04:48:39.203Z,50.875141
2023-04-03T04:49:39.182Z,50.875141
2023-04-03T04:50:39.210Z,50.875141
2023-04-03T04:51:51.059Z,50.875141
2023-04-03T04:52:41.182Z,50.875141
2023-04-03T04:53:39.188Z,50.875141
2023-04-03T04:54:39.150Z,50.875141
2023-04-03T04:55:39.302Z,50.875141
2023-04-03T04:56:39.141Z,50.875141
2023-04-03T04:57:39.239Z,50.875141
2023-04-03T04:58:39.098Z,50.875141
2023-04-03T04:59:39.116Z,50.875141
2023-04-03T05:00:39.117Z,50.875141
2023-04-03T05:01:39.130Z,50.875141
2023-04-03T05:02:39.114Z,50.875141
2023-04-03T05:03:39.065Z,50.875141
2023-04-03T05:04:39.090Z,50.875141
2023-04-03T05:05:39.538Z,50.875141
2023-04-03T05:06:39.037Z,50.875141
2023-04-03T05:07:39.033Z,50.875141
2023-04-03T05:08:39.030Z,50.875141
2023-04-03T05:09:38.995Z,50.875141
2023-04-03T05:10:38.990Z,50.875141
2023-04-03T05:11:38.974Z,50.875141
2023-04-03T05:12:38.982Z,50.875141
2023-04-03T05:13:38.949Z,50.875141
2023-04-03T05:14:38.948Z,50.875141
2023-04-03T05:15:39.453Z,50.875141
2023-04-03T05:16:38.926Z,50.875141
2023-04-03T05:17:38.930Z,50.875141
2023-04-03T05:18:38.916Z,50.875141
2023-04-03T05:19:38.891Z,50.875141
2023-04-03T05:20:38.891Z,50.875141
2023-04-03T05:21:38.889Z,50.875141
2023-04-03T05:22:38.881Z,50.875141
2023-04-03T05:23:38.874Z,50.875141
2023-04-03T05:24:38.864Z,50.875141
2023-04-03T05:25:39.112Z,50.875141
2023-04-03T05:26:38.833Z,50.875141
2023-04-03T05:27:38.826Z,50.875141
2023-04-03T05:28:38.826Z,50.875141
2023-04-03T05:29:38.805Z,50.875141
2023-04-03T05:30:38.798Z,50.875141
2023-04-03T05:31:38.867Z,50.875141
2023-04-03T05:32:38.809Z,50.875141
2023-04-03T05:33:38.772Z,50.875141
2023-04-03T05:34:38.755Z,50.875141
2023-04-03T05:35:39.002Z,50.875141
2023-04-03T05:36:38.740Z,50.875141
2023-04-03T05:37:38.720Z,50.875141
2023-04-03T05:38:38.743Z,50.875141
2023-04-03T05:39:38.708Z,50.875141
2023-04-03T05:40:38.703Z,50.875141
2023-04-03T05:41:38.685Z,50.875141
2023-04-03T05:42:38.686Z,50.875141
2023-04-03T05:43:38.680Z,50.875141
2023-04-03T05:44:38.653Z,50.875141
2023-04-03T05:45:38.658Z,50.875141
2023-04-03T05:46:38.637Z,50.875141
2023-04-03T05:47:38.675Z,50.875141
2023-04-03T05:48:38.625Z,50.875141
2023-04-03T05:49:38.600Z,50.875141
2023-04-03T05:50:38.595Z,50.875141
2023-04-03T05:51:38.585Z,50.875141
2023-04-03T05:52:38.580Z,50.875141
2023-04-03T05:53:38.683Z,50.875141
2023-04-03T05:54:38.556Z,50.875141
2023-04-03T05:55:38.796Z,50.875141
2023-04-03T05:56:38.536Z,50.875141
2023-04-03T05:57:38.638Z,50.875141
2023-04-03T05:58:38.535Z,50.875141
2023-04-03T05:59:38.569Z,50.875141
2023-04-03T06:00:38.556Z,50.875141
2023-04-03T06:01:39.483Z,50.875141
2023-04-03T06:02:38.564Z,50.875141
2023-04-03T06:03:41.541Z,50.875141
2023-04-03T06:04:44.094Z,50.875141
2023-04-03T06:05:38.664Z,50.875141
2023-04-03T06:06:38.557Z,50.875141
2023-04-03T06:07:38.454Z,50.875141
2023-04-03T06:08:38.548Z,50.875141
2023-04-03T06:09:38.459Z,50.875141
2023-04-03T06:10:38.712Z,50.875141
2023-04-03T06:11:38.395Z,50.875141
2023-04-03T06:12:38.375Z,50.875141
2023-04-03T06:13:38.387Z,50.875141
2023-04-03T06:14:38.357Z,50.875141
2023-04-03T06:15:38.354Z,50.875141
2023-04-03T06:16:39.621Z,50.875141
2023-04-03T06:17:38.344Z,50.875141
2023-04-03T06:18:38.343Z,50.875141
2023-04-03T06:19:38.314Z,50.875141
2023-04-03T06:20:38.689Z,50.875141
2023-04-03T06:21:38.289Z,50.875141
2023-04-03T06:22:38.290Z,50.875141
2023-04-03T06:23:38.266Z,50.875141
2023-04-03T06:24:38.253Z,50.875141
2023-04-03T06:25:38.252Z,50.875141
2023-04-03T06:26:38.247Z,50.875141
2023-04-03T06:27:38.226Z,50.875141
2023-04-03T06:28:38.240Z,50.875141
2023-04-03T06:29:38.226Z,50.875141
2023-04-03T06:30:38.475Z,50.875141
2023-04-03T06:31:38.188Z,50.875141
2023-04-03T06:32:38.228Z,50.875141
2023-04-03T06:33:38.176Z,50.875141
2023-04-03T06:34:38.139Z,50.875141
2023-04-03T06:35:38.296Z,50.875141
2023-04-03T06:36:38.128Z,50.875141
2023-04-03T06:37:38.145Z,50.875141
2023-04-03T06:38:38.132Z,50.875141
2023-04-03T06:39:38.193Z,50.875141
2023-04-03T06:40:38.279Z,50.875141
2023-04-03T06:41:38.087Z,50.875141
2023-04-03T06:42:38.060Z,50.875141
2023-04-03T06:43:38.064Z,50.875141
2023-04-03T06:44:38.043Z,50.875141
2023-04-03T06:45:38.191Z,50.875141
2023-04-03T06:46:38.059Z,50.875141
2023-04-03T06:47:38.025Z,50.875141
2023-04-03T06:48:38.031Z,50.875141
2023-04-03T06:49:37.995Z,50.875141
2023-04-03T06:50:37.975Z,50.875141
2023-04-03T06:51:37.968Z,50.875141
2023-04-03T06:52:37.960Z,50.875141
2023-04-03T06:53:37.960Z,50.875141
2023-04-03T06:54:37.939Z,50.875141
2023-04-03T06:55:38.020Z,50.875141
2023-04-03T06:56:37.958Z,50.875141
2023-04-03T06:57:37.939Z,50.875141
2023-04-03T06:58:38.904Z,50.875141
2023-04-03T06:59:37.919Z,50.875141
2023-04-03T07:00:37.881Z,50.875141
2023-04-03T07:01:38.586Z,50.875141
2023-04-03T07:02:38.234Z,50.875141
2023-04-03T07:03:37.862Z,50.875141
2023-04-03T07:04:37.870Z,50.875141
2023-04-03T07:05:37.990Z,50.875141
2023-04-03T07:06:37.819Z,50.875141
2023-04-03T07:07:38.324Z,50.875141
2023-04-03T07:08:37.809Z,50.875141
2023-04-03T07:09:37.781Z,50.875141
2023-04-03T07:10:37.775Z,50.875141
2023-04-03T07:11:37.757Z,50.875141
2023-04-03T07:12:37.746Z,50.875141
2023-04-03T07:13:37.745Z,50.875141
2023-04-03T07:14:37.724Z,50.875141
2023-04-03T07:15:37.851Z,50.875141
2023-04-03T07:16:39.989Z,50.875141
2023-04-03T07:17:37.763Z,50.875141
2023-04-03T07:18:37.694Z,50.875141
2023-04-03T07:19:37.684Z,50.875141
2023-04-03T07:20:37.657Z,50.875141
2023-04-03T07:21:37.651Z,50.875141
2023-04-03T07:22:37.644Z,50.875141
2023-04-03T07:23:37.645Z,50.875141
2023-04-03T07:24:37.647Z,50.875141
2023-04-03T07:25:37.842Z,50.875141
2023-04-03T07:26:37.599Z,50.875141
2023-04-03T07:27:37.590Z,50.875141
2023-04-03T07:28:37.732Z,50.875141
2023-04-03T07:29:37.577Z,50.875141
2023-04-03T07:30:37.575Z,50.875141
2023-04-03T07:31:37.572Z,50.875141
2023-04-03T07:32:37.601Z,50.875141
2023-04-03T07:33:37.537Z,50.875141
2023-04-03T07:34:37.534Z,50.875141
2023-04-03T07:35:37.932Z,50.875141
2023-04-03T07:36:37.497Z,50.875141
2023-04-03T07:37:37.502Z,50.875141
2023-04-03T07:38:37.486Z,50.875141
2023-04-03T07:39:37.468Z,50.875141
2023-04-03T07:40:37.477Z,50.875141
2023-04-03T07:41:37.460Z,50.875141
2023-04-03T07:42:37.461Z,50.875141
2023-04-03T07:43:37.439Z,50.875141
2023-04-03T07:44:37.412Z,50.875141
2023-04-03T07:45:37.726Z,50.875141
2023-04-03T07:46:37.393Z,50.875141
2023-04-03T07:47:37.417Z,50.875141
2023-04-03T07:48:37.393Z,50.875141
2023-04-03T07:49:37.372Z,50.875141
2023-04-03T07:50:37.372Z,50.875141
2023-04-03T07:51:37.345Z,50.875141
2023-04-03T07:52:37.338Z,50.875141
2023-04-03T07:53:37.343Z,50.875141
2023-04-03T07:54:37.323Z,50.875141
2023-04-03T07:55:37.566Z,50.875141
2023-04-03T07:56:37.301Z,50.875141
2023-04-03T07:57:37.329Z,50.875141
2023-04-03T07:58:37.289Z,50.875141
2023-04-03T07:59:37.264Z,50.875141
2023-04-03T08:00:37.332Z,50.875141
2023-04-03T08:01:37.242Z,50.875141
2023-04-03T08:02:37.243Z,50.875141
2023-04-03T08:03:37.289Z,50.875141
2023-04-03T08:04:37.291Z,50.875141
2023-04-03T08:05:37.358Z,50.875141
2023-04-03T08:06:45.998Z,50.875141
2023-04-03T08:07:39.178Z,50.875141
2023-04-03T08:08:37.168Z,50.875141
2023-04-03T08:09:37.168Z,50.875141
2023-04-03T08:10:37.144Z,50.875141
2023-04-03T08:11:37.133Z,50.875141
2023-04-03T08:12:37.124Z,50.875141
2023-04-03T08:13:37.116Z,50.875141
2023-04-03T08:14:37.120Z,50.875141
2023-04-03T08:15:37.181Z,50.875141
2023-04-03T08:16:37.205Z,50.875141
2023-04-03T08:17:37.114Z,50.875141
2023-04-03T08:18:37.057Z,50.875141
2023-04-03T08:19:37.061Z,50.875141
2023-04-03T08:20:37.037Z,50.875141
2023-04-03T08:21:37.038Z,50.875141
2023-04-03T08:22:37.019Z,50.875141
2023-04-03T08:23:37.014Z,50.875141
2023-04-03T08:24:39.194Z,50.875141
2023-04-03T08:25:37.105Z,50.875141
2023-04-03T08:26:36.982Z,50.875141
2023-04-03T08:27:36.976Z,50.875141
2023-04-03T08:28:36.967Z,50.875141
2023-04-03T08:29:36.995Z,50.875141
2023-04-03T08:30:37.062Z,50.875141
2023-04-03T08:31:36.929Z,50.875141
2023-04-03T08:32:37.017Z,50.875141
2023-04-03T08:33:36.910Z,50.875141
2023-04-03T08:34:36.928Z,50.875141
2023-04-03T08:35:38.226Z,50.875141
2023-04-03T08:36:37.880Z,50.875141
2023-04-03T08:37:37.532Z,50.875141
2023-04-03T08:38:36.864Z,50.875141
2023-04-03T08:39:36.858Z,50.875141
2023-04-03T08:40:36.849Z,50.875141
2023-04-03T08:41:36.858Z,50.875141
2023-04-03T08:42:36.848Z,50.875141
2023-04-03T08:43:36.815Z,50.875141
2023-04-03T08:44:37.380Z,50.875141
2023-04-03T08:45:36.974Z,50.875141
2023-04-03T08:46:36.892Z,50.875141
2023-04-03T08:47:36.787Z,50.875141
2023-04-03T08:48:36.847Z,50.875141
2023-04-03T08:49:36.819Z,50.875141
2023-04-03T08:50:36.737Z,50.875141
2023-04-03T08:51:36.729Z,50.875141
2023-04-03T08:52:36.719Z,50.875141
2023-04-03T08:53:36.710Z,50.875141
2023-04-03T08:54:36.716Z,50.875141
2023-04-03T08:55:36.928Z,50.875141
2023-04-03T08:56:36.678Z,50.875141
2023-04-03T08:57:36.797Z,50.875141
2023-04-03T08:58:36.654Z,50.875141
2023-04-03T08:59:36.665Z,50.875141
2023-04-03T09:00:36.649Z,50.875141
2023-04-03T09:01:36.644Z,50.875141
2023-04-03T09:02:36.674Z,50.875141
2023-04-03T09:03:36.659Z,50.875141
2023-04-03T09:04:36.698Z,50.875141
2023-04-03T09:05:36.833Z,50.875141
2023-04-03T09:06:37.300Z,50.875141
2023-04-03T09:07:36.562Z,50.875141
2023-04-03T09:08:36.550Z,50.875141
2023-04-03T09:09:36.594Z,50.875141
2023-04-03T09:10:36.721Z,50.875141
2023-04-03T09:11:36.552Z,50.875141
2023-04-03T09:12:36.526Z,50.875141
2023-04-03T09:13:36.525Z,50.875141
2023-04-03T09:14:36.510Z,50.875141
2023-04-03T09:15:39.515Z,50.875141
2023-04-03T09:16:37.487Z,50.875141
2023-04-03T09:17:36.548Z,50.875141
2023-04-03T09:18:36.463Z,50.875141
2023-04-03T09:19:36.442Z,50.875141
2023-04-03T09:20:36.786Z,50.875141
2023-04-03T09:21:36.430Z,50.875141
2023-04-03T09:22:41.976Z,50.875141
2023-04-03T09:23:38.433Z,50.875141
2023-04-03T09:24:36.410Z,50.875141
2023-04-03T09:25:36.410Z,50.875141
2023-04-03T09:26:36.420Z,50.875141
2023-04-03T09:27:36.400Z,50.875141
2023-04-03T09:28:42.902Z,50.875141
2023-04-03T09:29:38.374Z,50.875141
2023-04-03T09:30:36.534Z,50.875141
2023-04-03T09:31:36.362Z,50.875141
2023-04-03T09:32:36.385Z,50.875141
2023-04-03T09:33:36.342Z,50.875141
2023-04-03T09:34:36.326Z,50.875141
2023-04-03T09:35:47.442Z,50.875141
2023-04-03T09:36:38.386Z,50.875141
2023-04-03T09:37:36.276Z,50.875141
2023-04-03T09:38:36.282Z,50.875141
2023-04-03T09:39:36.262Z,50.875141
2023-04-03T09:40:36.709Z,50.875141
2023-04-03T09:41:36.242Z,50.875141
2023-04-03T09:42:36.859Z,50.875141
2023-04-03T09:43:36.185Z,50.875141
2023-04-03T09:44:36.223Z,50.875141
2023-04-03T09:45:36.215Z,50.875141
2023-04-03T09:46:36.239Z,50.875141
2023-04-03T09:47:36.249Z,50.875141
2023-04-03T09:48:36.181Z,50.875141
2023-04-03T09:49:36.190Z,50.875141
2023-04-03T09:50:36.338Z,50.875141
2023-04-03T09:51:36.166Z,50.875141
2023-04-03T09:52:37.627Z,50.875141
2023-04-03T09:53:37.135Z,50.875141
2023-04-03T09:54:36.140Z,50.875141
2023-04-03T09:55:36.104Z,50.875141
2023-04-03T09:56:36.087Z,50.875141
2023-04-03T09:57:36.117Z,50.875141
2023-04-03T09:58:46.977Z,50.875141
2023-04-03T09:59:38.068Z,50.875141
2023-04-03T10:00:36.295Z,50.875141
2023-04-03T10:01:36.107Z,50.875141
2023-04-03T10:02:36.081Z,50.875141
2023-04-03T10:03:36.011Z,50.875141
2023-04-03T10:04:36.065Z,50.875141
2023-04-03T10:05:36.018Z,50.875141
2023-04-03T10:06:36.036Z,50.875141
2023-04-03T10:07:36.007Z,50.875141
2023-04-03T10:08:36.092Z,50.875141
2023-04-03T10:09:35.947Z,50.875141
2023-04-03T10:10:36.944Z,50.875141
2023-04-03T10:11:35.946Z,50.875141
2023-04-03T10:12:35.920Z,50.875141
2023-04-03T10:13:45.201Z,50.875141
2023-04-03T10:14:37.939Z,50.875141
2023-04-03T10:15:35.929Z,50.875141
2023-04-03T10:16:35.948Z,50.875141
2023-04-03T10:17:35.955Z,50.875141
2023-04-03T10:18:35.920Z,50.875141
2023-04-03T10:19:35.868Z,50.875141
2023-04-03T10:20:35.949Z,50.875141
2023-04-03T10:21:35.855Z,50.875141
2023-04-03T10:22:35.851Z,50.875141
2023-04-03T10:23:35.885Z,50.875141
2023-04-03T10:24:35.906Z,50.875141
2023-04-03T10:25:35.848Z,50.875141
2023-04-03T10:26:35.834Z,50.875141
2023-04-03T10:27:35.800Z,50.875141
2023-04-03T10:28:35.827Z,50.875141
2023-04-03T10:29:35.820Z,50.875141
2023-04-03T10:30:36.064Z,50.875141
2023-04-03T10:31:35.811Z,50.875141
2023-04-03T10:32:35.832Z,50.875141
2023-04-03T10:33:35.722Z,50.875141
2023-04-03T10:34:35.717Z,50.875141
2023-04-03T10:35:35.837Z,50.875141
2023-04-03T10:36:35.707Z,50.875141
2023-04-03T10:37:35.782Z,50.875141
2023-04-03T10:38:35.696Z,50.875141
2023-04-03T10:39:35.734Z,50.875141
2023-04-03T10:40:36.104Z,50.875141
2023-04-03T10:41:35.683Z,50.875141
2023-04-03T10:42:35.640Z,50.875141
2023-04-03T10:43:35.692Z,50.875141
2023-04-03T10:44:35.673Z,50.875141
2023-04-03T10:45:35.660Z,50.875141
2023-04-03T10:46:35.712Z,50.875141
2023-04-03T10:47:37.227Z,50.875141
2023-04-03T10:48:35.597Z,50.875141
2023-04-03T10:49:35.569Z,50.875141
2023-04-03T10:50:35.847Z,50.875141
2023-04-03T10:51:35.563Z,50.875141
2023-04-03T10:52:35.545Z,50.875141
2023-04-03T10:53:35.538Z,50.875141
2023-04-03T10:54:35.531Z,50.875141
2023-04-03T10:55:35.599Z,50.875141
2023-04-03T10:56:35.654Z,50.875141
2023-04-03T10:57:35.586Z,50.875141
2023-04-03T10:58:35.492Z,50.875141
2023-04-03T10:59:35.457Z,50.875141
2023-04-03T11:00:35.770Z,50.875141
2023-04-03T11:01:35.517Z,50.875141
2023-04-03T11:02:35.511Z,50.875141
2023-04-03T11:03:35.583Z,50.875141
2023-04-03T11:04:35.428Z,50.875141
2023-04-03T11:05:35.479Z,50.875141
2023-04-03T11:06:35.435Z,50.875141
2023-04-03T11:07:35.397Z,50.875141
2023-04-03T11:08:35.445Z,50.875141
2023-04-03T11:09:35.387Z,50.875141
2023-04-03T11:10:35.384Z,50.875141
2023-04-03T11:11:35.401Z,50.875141
2023-04-03T11:12:35.433Z,50.875141
2023-04-03T11:13:35.390Z,50.875141
2023-04-03T11:14:35.388Z,50.875141
2023-04-03T11:15:35.355Z,50.875141
2023-04-03T11:16:43.591Z,50.875141
2023-04-03T11:17:37.442Z,50.875141
2023-04-03T11:18:35.281Z,50.875141
2023-04-03T11:19:35.266Z,50.875141
2023-04-03T11:20:35.270Z,50.875141
2023-04-03T11:21:35.287Z,50.875141
2023-04-03T11:22:35.251Z,50.875141
2023-04-03T11:23:46.053Z,50.875141
2023-04-03T11:24:37.262Z,50.875141
2023-04-03T11:25:35.448Z,50.875141
2023-04-03T11:26:35.250Z,50.875141
2023-04-03T11:27:35.180Z,50.875141
2023-04-03T11:28:35.287Z,50.875141
2023-04-03T11:29:35.972Z,50.875141
2023-04-03T11:30:36.198Z,50.875141
2023-04-03T11:31:35.298Z,50.875141
2023-04-03T11:32:35.253Z,50.875141
2023-04-03T11:33:35.221Z,50.875141
2023-04-03T11:34:35.258Z,50.875141
2023-04-03T11:35:35.240Z,50.875141
2023-04-03T11:36:36.911Z,50.875141
2023-04-03T11:37:35.142Z,50.875141
2023-04-03T11:38:35.189Z,50.875141
2023-04-03T11:39:35.192Z,50.875141
2023-04-03T11:40:35.119Z,50.875141
2023-04-03T11:41:35.131Z,50.875141
2023-04-03T11:42:35.229Z,50.875141
2023-04-03T11:43:35.076Z,50.875141
2023-04-03T11:44:35.169Z,50.875141
2023-04-03T11:45:35.102Z,50.875141
2023-04-03T11:46:35.110Z,50.875141
2023-04-03T11:47:35.087Z,50.875141
2023-04-03T11:48:35.066Z,50.875141
2023-04-03T11:49:35.028Z,50.875141
2023-04-03T11:50:35.052Z,50.875141
2023-04-03T11:51:35.119Z,50.875141
2023-04-03T11:52:35.098Z,50.875141
2023-04-03T11:53:35.065Z,50.875141
2023-04-03T11:54:42.124Z,50.875141
2023-04-03T11:55:37.252Z,50.875141
2023-04-03T11:56:34.929Z,50.875141
2023-04-03T11:57:35.006Z,50.875141
2023-04-03T11:58:34.925Z,50.875141
2023-04-03T11:59:34.921Z,50.875141
2023-04-03T12:00:34.968Z,50.875141
2023-04-03T12:01:34.925Z,50.875141
2023-04-03T12:02:41.156Z,50.875141
2023-04-03T12:03:35.968Z,50.875141
2023-04-03T12:04:34.891Z,50.875141
2023-04-03T12:05:34.862Z,50.875141
2023-04-03T12:06:34.831Z,50.875141
2023-04-03T12:07:34.887Z,50.875141
2023-04-03T12:08:34.873Z,50.875141
2023-04-03T12:09:34.817Z,50.875141
2023-04-03T12:10:34.814Z,50.875141
2023-04-03T12:11:34.838Z,50.875141
2023-04-03T12:12:34.825Z,50.875141
2023-04-03T12:13:34.812Z,50.875141
2023-04-03T12:14:34.795Z,50.875141
2023-04-03T12:15:34.740Z,50.875141
2023-04-03T12:16:34.963Z,50.875141
2023-04-03T12:17:34.765Z,50.875141
2023-04-03T12:18:34.730Z,50.875141
2023-04-03T12:19:42.511Z,50.875141
2023-04-03T12:20:36.783Z,50.875141
2023-04-03T12:21:34.796Z,50.875141
2023-04-03T12:22:34.719Z,50.875141
2023-04-03T12:23:34.750Z,50.875141
2023-04-03T12:24:34.721Z,50.875141
2023-04-03T12:25:34.757Z,50.875141
2023-04-03T12:26:45.588Z,50.875141
2023-04-03T12:27:36.687Z,50.875141
2023-04-03T12:28:34.645Z,50.875141
2023-04-03T12:29:34.681Z,50.875141
2023-04-03T12:30:34.601Z,50.875141
2023-04-03T12:31:34.651Z,50.875141
2023-04-03T12:32:34.696Z,50.875141
2023-04-03T12:33:34.755Z,50.875141
2023-04-03T12:34:34.726Z,50.875141
2023-04-03T12:35:34.619Z,50.875141
2023-04-03T12:36:34.568Z,50.875141
2023-04-03T12:37:34.546Z,50.875141
2023-04-03T12:38:34.512Z,50.875141
2023-04-03T12:39:35.350Z,50.875141
2023-04-03T12:40:34.506Z,50.875141
2023-04-03T12:41:34.519Z,50.875141
2023-04-03T12:42:34.522Z,50.875141
2023-04-03T12:43:34.523Z,50.875141
2023-04-03T12:44:35.494Z,50.875141
2023-04-03T12:45:34.502Z,50.875141
2023-04-03T12:46:34.507Z,50.875141
2023-04-03T12:47:34.510Z,50.875141
2023-04-03T12:48:34.514Z,50.875141
2023-04-03T12:49:34.393Z,50.875141
2023-04-03T12:50:34.382Z,50.875141
2023-04-03T12:51:34.386Z,50.875141
2023-04-03T12:52:34.394Z,50.875141
2023-04-03T12:53:34.386Z,50.875141
2023-04-03T12:54:34.404Z,50.875141
2023-04-03T12:55:34.432Z,50.875141
2023-04-03T12:56:34.359Z,50.875141
2023-04-03T12:57:35.718Z,50.875141
